Ibague, Colombia

6:51 AM COT on August 31, 2014 (GMT -0500)
Perales | Change Station
CLOSE
Current Station
Airport
Location: Ibague,
Elevation: 3045 ft
Nearby Weather Stations

Elev 3045 ft 4.43 °N, 75.15 °W | Updated 51 minutes ago

Scattered Clouds
Scattered Clouds
66 °F
Feels Like 66 °F
N
9
Wind Variable Wind from WNW

Today
High -- | Low -- °F
--% Chance of Precip.
Yesterday
High -- | Low -- °F
Precip. -- in
5:54 AM 6:06 PM
Waxing Crescent, 30% visible
Pressure 30.10 in
Visibility 6.2 miles
Clouds Few 2000 ft
Scattered Clouds 8000 ft
Dew Point 57 °F
Humidity 73%
Rainfall 0.00 in
Snow Depth Not available.
UV 0 out of 12
Pollen Not available.
Air Quality Not available.
Flu Activity Not available.
METAR SKIB 311100Z 30008KT 9999 FEW020 SCT080 19/14 A3010

More Conditions Fewer Conditions

Pressure 30.10 in
Visibility 6.2 miles
Clouds Few 2000 ft
Scattered Clouds 8000 ft
Dew Point 57 °F
Humidity 73%
Rainfall 0.00 in
Snow Depth Not available.
UV 0 out of 12
Pollen Not available.
Air Quality Not available.
Flu Activity Not available.
METAR SKIB 311100Z 30008KT 9999 FEW020 SCT080 19/14 A3010

More Conditions Fewer Conditions

10-Day Weather Forecast

Almanac

Astronomy

Aug. 31, 2014 Rise Set
Actual Time 5:54 AM COT 6:06 PM COT
Civil Twilight 5:33 AM COT 6:27 PM COT
Nautical Twilight 5:09 AM COT 6:52 PM COT
Astronomical Twilight 4:45 AM COT 7:16 PM COT
Moon 10:24 AM COT 10:38 PM COT
Length of Visible Light 12h 53m
Length of Day
12h 11m
Tomorrow will be 0m 15s shorter.
Waxing Crescent, 30% of the Moon is Illuminated
Today
Waxing Crescent
Sep 2
First Quarter
Sep 8
Full
Sep 15
Last Quarter
Sep 24
New

Yesterday's Extremes

Country Highs Country Lows

Community

WunderPhotos

Upload Photos

1,748,848 photos uploaded!

Nearby

Snow Depth

Not available.

Earthquake Activity

City Distance Mag. Time & Date
No recent earthquake activity has been reported nearby.
Minimum magnitude displayed is 2.5.

Coastal Water Temperatures

Place Temperature
No Stations Reporting

Nearby Weather Stations